Observations at @ca for Latest


KACV 170453Z AUTO 00000KT 5SM BR OVC005 12/12 A2998 RMK AO2 SLP156 T01170117=
KAPC 170454Z AUTO 19013KT 10SM OVC009 13/12 A2982 RMK AO2 SLP089 T01330117=
KAVX 170451Z AUTO 24003KT 1/4SM FG VV001 13/13 A2991 RMK AO2 SLP120 T01280128 $=
KBAB 170458Z AUTO M M M M M M RMK AO2 SLPNO RVRNO PNO TSNO VISNO RWY33 CHINO
 RWY33 $=
KBFL 170454Z 00000KT 10SM CLR 28/11 A2975 RMK AO2 SLP068 T02830111=
KBIH 170456Z AUTO 35017G29KT 10SM CLR 22/07 A2999 RMK AO2 PK WND 35029/0455
 SLP101 T02220067=
KBLH 170452Z AUTO 21008KT 10SM CLR 34/04 A2967 RMK AO2 SLP040 T03390044=
KBLU 170452Z AUTO 07003KT 10SM SCT110 16/14 A3004 RMK AO2 SLP086 T01610139=
KBUR 170453Z 19005KT 10SM OVC014 17/14 A2988 RMK AO2 SLP109 T01720139=
KBUR 170504Z 17005KT 10SM OVC015 17/14 A2988 RMK AO2 T01720139=
KBYS 170458Z AUTO 22010KT 170V270 10SM CLR 28/07 A2978 RMK AO2 SLPNO WND DATA
 ESTMD T02810067=
KCCR 170453Z 10SM CLR 16/09 A2980 RMK AO2 SLP077 T01560094=
KCEC 170456Z AUTO 17008KT 9SM BKN009 13/11 A2994 RMK AO2 SLP140 T01280106=
KCEC 170504Z AUTO 16008KT 9SM FEW005 BKN010 12/11 A2994 RMK AO2 T01220106=
KCEC 170537Z AUTO 18010KT 9SM FEW005 SCT010 12/11 A2995 RMK AO2 T01220106=
KCEC 170549Z AUTO 18008G16KT 9SM SCT004 BKN010 12/11 A2996 RMK AO2 T01220106=
KCIC 170455Z AUTO 00000KT 10SM CLR 28/17 A2974 RMK AO1=
KCIC 170515Z AUTO 00000KT 10SM CLR 28/16 A2975 RMK AO1=
KCIC 170535Z AUTO 12005KT 10SM CLR 28/15 A2975 RMK AO1=
KCMA 170455Z 22004KT 10SM OVC014 17/12 A2987 RMK AO2 SLP124 T01670122=
KCNO 170453Z AUTO 25006KT 10SM OVC017 17/16 A2989 RMK AO2 SLP118 T01720161=
KCQT 170547Z AUTO 00000KT 7SM OVC015 18/14 A2988 RMK AO2 SLP117 T01780139 10217
 20172 51008 $=
KCRQ 170453Z AUTO 23003KT 6SM HZ OVC012 18/14 A2989 RMK AO2 SLP118 T01830144=
KCZZ 170452Z AUTO 20003KT 14/13 A2989 RMK AO1 SLP091 T01440133=
KDAG 170450Z AUTO 23016KT 10SM CLR 28/06 A2978 RMK AO2 SLP054 T02830061=
KEDW 170458Z AUTO 22013KT 10SM CLR 23/10 A2980 RMK AO2 SLP067 T02250100=
KEED 170456Z AUTO 24011KT 10SM CLR 36/05 A2968 RMK AO2 SLP010 T03610050=
KEMT 170245Z 23005KT 10SM SCT022 BKN028 20/14 A2986=
KFAT 170453Z 32007KT 10SM FEW150 BKN200 29/16 A2974 RMK AO2 SLP068 T02890156 $=
KFCH 170455Z AUTO 30004KT 10SM CLR 27/16 A2975 RMK A01=
KFCH 170515Z AUTO 31004KT 10SM CLR 27/16 A2976 RMK A01=
KFCH 170535Z AUTO 32004KT 10SM CLR 27/16 A2976 RMK A01=
KFOT 170455Z AUTO 31006KT 11/10 A2999 RMK AO1=
KFOT 170515Z AUTO 29005KT 11/10 A2999 RMK AO1=
KFOT 170535Z AUTO 29005KT 11/10 A2999 RMK AO1=
KFUL 170453Z AUTO 22004KT 10SM OVC016 19/14 A2988 RMK AO2 SLP116 T01890139=
KHHR 170453Z AUTO 25005KT 10SM OVC019 18/13 A2989 RMK AO2 SLP120 T01830128=
KHJO 170453Z AUTO 27003KT 10SM CLR 23/18 A2974 RMK AO2 SLP071 T02280178=
KHWD 170454Z 28007KT 9SM OVC009 13/11 A2985 RMK AO2 SLP118 T01330106=
KHWD 170532Z AUTO 00000KT 9SM OVC010 13/11 A2986 RMK AO2 CIG 009V014 T01330106=
KIPL 170453Z AUTO 26014KT 10SM CLR 29/11 A2965 RMK AO2 SLP040 T02890106 PWINO $=
KIZA 170455Z AUTO 27004KT 10SM SCT011 SCT016 12/10 A2990 RMK AO2=
KIZA 170515Z AUTO 28003KT 10SM SCT011 12/10 A2990 RMK AO2=
KIZA 170535Z AUTO 27003KT 10SM BKN009 BKN015 12/10 A2990 RMK AO2=
KLAX 170453Z VRB06KT 10SM OVC019 18/13 A2988 RMK AO2 SLP118 T01780133=
KLGB 170453Z VRB03KT 10SM OVC017 18/14 A2989 RMK AO2 SLP120 T01830139=
KLPC 170456Z AUTO 32003KT 10SM OVC009 13/11 A2991 RMK AO2 SLP129 T01330111=
KLVK 170453Z 31011KT 9SM CLR 13/10 A2983 RMK AO2 SLP098 T01330100=
KMAE 170453Z AUTO 31005KT 10SM CLR 24/18 A2974 RMK AO2 SLP070 T02390178 $=
KMCC 170500Z AUTO 17008KT 10SM CLR 21/13 A2976 RMK AO2=
KMCC 170520Z AUTO 17007KT 10SM CLR 21/12 A2976 RMK AO2=
KMCC 170540Z AUTO 17009KT 10SM CLR 20/12 A2977 RMK AO2=
KMCE 170453Z AUTO 32004KT 10SM CLR 24/17 A2974 RMK AO2 SLP069 T02390167=
KMER 170455Z AUTO 35004KT 10SM CLR 23/18 A2975 RMK AO1=
KMER 170515Z AUTO 01005KT 10SM CLR 22/18 A2975 RMK AO1=
KMER 170535Z AUTO 10SM CLR 22/17 A2975 RMK AO1=
KMER 170455Z AUTO 35004KT 10SM CLR 23/18 A2975 RMK AO1=
KMER 170515Z AUTO 01005KT 10SM CLR 22/18 A2975 RMK AO1=
KMER 170535Z AUTO 10SM CLR 22/17 A2975 RMK AO1=
KMHR 170355Z 21007KT 10SM SKC 22/13 A2973=
KMHS 170456Z AUTO VRB04KT 10SM CLR 21/07 A2998 RMK AO2 SLP135 T02110067 $=
KMHV 170500Z AUTO 30030G39KT 10SM CLR 25/06 A2980 RMK A01=
KMHV 170520Z AUTO 30029G37KT 10SM CLR 25/06 A2980 RMK A01=
KMHV 170540Z AUTO 30024G33KT 10SM CLR 25/06 A2980 RMK A01=
KMMH 170455Z AUTO 29005KT 10SM CLR 13/03 A3020 RMK AO2 T01260028=
KMMH 170515Z AUTO 28006KT 10SM CLR 12/03 A3020 RMK AO2 T01170032=
KMMH 170535Z AUTO 27009KT 10SM CLR 12/04 A3020 RMK AO2 T01210036=
KMOD 170453Z AUTO 35007KT 10SM CLR 24/11 A2974 RMK AO2 SLP069 T02440111=
KMRY 170454Z AUTO 25005KT 8SM OVC004 12/10 A2989 RMK AO2 SLP135 T01220100=
KMYF 170453Z AUTO 00000KT 9SM OVC010 16/14 A2990 RMK AO2 CIG 008V014 SLP124
 T01610139=
KMYV 170453Z AUTO 16008KT 10SM CLR 24/16 A2973 RMK AO2 SLP069 T02390156 $=
KNFG 170455Z AUTO 00000KT 10SM OVC016 17/15 A2989 RMK AO2 SLP120 T01720150 $=
KNID 170456Z AUTO 19006KT 10SM CLR 28/08 A2974 RMK AO2 SLP049 T02830083 $=
KNJK 170456Z AUTO 26022KT 10SM -RA CLR 31/09 A2968 RMK AO2 PK WND 26030/0431
 RAB13 SLP064 P0000 T03060089 $=
KNKX 170455Z 00000KT 5SM BR BKN006 OVC012 18/15 A2990 RMK AO2 CIG 005V010
 SLP119 T01780150 $=
KNLC 170456Z AUTO 27005KT 10SM CLR 23/14 A2974 RMK AO2 SLP070 T02280139=
KNRS 170456Z AUTO A2990 RMK AO2 SLP126 PWINO=
KNSI 170456Z AUTO 28012G18KT OVC007 14/10 A2990 RMK AO2 SLP119 T01390100 $=
KNTD 170457Z 22004KT 7SM OVC012 16/14 A2989 RMK AO2 SLP121 T01560139 $=
KNUC 170456Z AUTO OVC010 14/ A2992 RMK AO2 SLP131 T0144 $=
KNUQ 170456Z 01008KT 10SM SCT011 16/12 A2986 RMK AO2 SLP114 T01560122=
KNXP 170456Z 27004KT 10SM CLR 28/M01 A2984 RMK AO2 SLP065 T02831006=
KNZY 170452Z 21003KT 10SM BKN015 OVC020 18/13 A2989 RMK AO2 SLP123 T01780133=
KO54 170455Z AUTO 00000KT 10SM CLR 20/13 A2989 RMK AO1=
KO54 170515Z AUTO 00000KT 10SM CLR 20/12 A2990 RMK AO1=
KO54 170535Z AUTO 00000KT 10SM CLR 19/12 A2990 RMK AO1=
KOAK 170453Z 32004KT 10SM OVC009 14/11 A2986 RMK AO2 SLP110 T01390106=
KONT 170453Z 23006KT 10SM OVC014 20/17 A2988 RMK AO2 SLP110 T02000167=
KOVE 170453Z AUTO 16007KT 10SM CLR 27/16 A2974 RMK AO2 SLP072 T02670161 $=
KOXR 170451Z AUTO 27004KT 10SM OVC012 16/13 A2987 RMK AO2 SLP115 T01610128=
KPAO 170347Z 35010KT 10SM FEW020 SCT120 15/13 A2985 RMK LAST=
KPMD 170453Z 20011KT 10SM CLR 22/09 A2986 RMK AO2 SLP082 T02220094=
KPOC 170347Z 24008KT 10SM OVC019 18/14 A2988=
KPRB 170453Z AUTO 20009KT 10SM CLR 13/10 A2985 RMK AO2 SLP105 T01330100 $=
KPSP 170453Z 31010KT 10SM CLR 29/13 A2970 RMK AO2 SLP052 T02890133=
KPTV 170456Z AUTO 16003KT 10SM CLR 23/12 A2976 RMK AO2 SLP085 T02330122=
KRAL 170453Z AUTO 27004KT 10SM OVC014 17/14 A2989 RMK AO2 SLP107 T01720144=
KRBL 170454Z AUTO 17004KT 10SM CLR 27/19 A2973 RMK AO2 SLP064 T02670194=
KRDD 170453Z AUTO 00000KT 10SM CLR 29/18 A2974 RMK AO2 SLP064 T02890183=
KRHV 170450Z VRB04KT 10SM FEW080 16/12 A2986 RMK LAST=
KRIV 170458Z AUTO 32005KT 10SM OVC014 17/17 A2989 RMK AO2 CIG 010 RWY14 SLP114
 T01710171=
KRIV 170513Z AUTO 33003KT 10SM OVC013 17/17 A2990 RMK AO2 CIG 010 RWY14 SLP117=
KRIV 170520Z AUTO 33004KT 10SM OVC011 17/17 A2989 RMK AO2 CIG 010 RWY14 SLP114=
KRNM 170453Z AUTO 29005KT 3SM BR OVC004 16/14 A2990 RMK AO2 SLP115 T01610144=
KRNM 170535Z AUTO 00000KT 6SM BR BKN006 OVC010 16/14 A2990 RMK AO2 CIG 003V009
 T01610144=
KSAC 170453Z AUTO 21008KT 10SM CLR 18/12 A2974 RMK AO2 SLP072 T01830122=
KSAN 170451Z 00000KT 10SM OVC016 18/14 A2991 RMK AO2 SLP129 T01780144=
KSBA 170453Z 00000KT 10SM OVC019 17/13 A2987 RMK AO2 SLP113 T01670133=
KSBD 170500Z AUTO 23006KT 10SM CLR 19/14 A2989 RMK AO2 T01850140=
KSBD 170523Z AUTO 23005KT 10SM BKN020 19/14 A2990 RMK AO2 T01850140=
KSBD 170541Z AUTO 25005KT 10SM OVC018 19/14 A2989 RMK AO2 T01860140=
KSBP 170456Z AUTO 30008KT 10SM OVC014 13/11 A2990 RMK AO2 SLP124 T01280106=
KSBP 170545Z AUTO 31006KT 10SM OVC009 13/11 A2990 RMK AO2 T01280106=
KSCK 170455Z AUTO 10SM CLR 22/12 A2974 RMK AO2 SLP071 T02220122=
KSDB 170453Z AUTO 29006KT 10SM CLR 19/09 A2999 RMK AO2 SLP101 T01890094 $=
KSDM 170453Z AUTO 21003KT 10SM OVC012 17/14 A2990 RMK AO2 SLP123 T01670139=
KSEE 170455Z AUTO 29004KT 10SM OVC011 17/15 A2989 RMK AO2=
KSEE 170515Z AUTO 23003KT 8SM OVC011 17/15 A2989 RMK AO2=
KSEE 170535Z AUTO 00000KT 8SM BKN009 OVC014 17/15 A2989 RMK AO2=
KSFO 170456Z 29010KT 10SM FEW004 FEW009 13/10 A2985 RMK AO2 SLP107 T01280100=
KSIY 170453Z AUTO 35011KT 10SM CLR 23/03 A2996 RMK AO2 SLP131 T02330028 $=
KSJC 170453Z 32007KT 10SM FEW015 FEW080 SCT160 14/12 A2985 RMK AO2 SLP109
 T01440122 $=
KSLI 170458Z AUTO 21004KT 10SM OVC017 18/15 A2989 RMK AO2 SLP125 T01800145=
KSMF 170453Z 16009KT 10SM SCT250 19/13 A2973 RMK AO2 SLP066 T01940128=
KSMO 170451Z AUTO 25003KT 10SM OVC016 17/14 A2989 RMK AO2 SLPNO T01720139=
KSMX 170451Z AUTO 29007KT 9SM OVC008 13/12 A2991 RMK AO2 SLP129 T01330117=
KSNA 170453Z 22004KT 7SM FEW009 OVC013 18/14 A2989 RMK AO2 SLP119 T01830139=
KSNA 170502Z 24004KT 7SM FEW010 OVC015 18/14 A2989 RMK AO2 T01830139=
KSNS 170453Z AUTO 31010KT 10SM OVC006 15/11 A2988 RMK AO2 SLP127 T01500106=
KSQL 170358Z 28004KT 10SM FEW010 FEW200 14/11 A2984 RMK LAST=
KSTS 170453Z AUTO 14006KT 7SM OVC005 12/11 A2982 RMK AO2 SLP092 T01170106=
KSTS 170501Z AUTO 16005KT 7SM OVC004 12/11 A2982 RMK AO2 T01170106=
KSTS 170523Z AUTO 16005KT 7SM OVC005 12/11 A2983 RMK AO2 T01170106=
KSUU 170458Z AUTO 22023G29KT 10SM CLR 14/11 A2974 RMK AO2 PK WND 22029/53
 SLP078 T01400108=
KSVE 170455Z AUTO 26007KT 10SM SCT120 23/05 A2995 RMK AO2=
KSVE 170515Z AUTO 26008KT 10SM FEW120 23/04 A2995 RMK AO2=
KSVE 170535Z AUTO 26008KT 10SM CLR 22/05 A2995 RMK AO2=
KTOA 170247Z 27007KT 10SM OVC011 17/14 A2987 RMK LAST=
KTRK 170455Z AUTO 00000KT 10SM CLR 10/07 A3009 RMK AO2=
KTRK 170515Z AUTO 00000KT 10SM CLR 10/07 A3010 RMK AO2=
KTRK 170535Z AUTO 00000KT 10SM CLR 08/07 A3010 RMK AO2 LTG DSNT SE=
KTRM 170452Z AUTO 33015KT 10SM CLR 31/13 A2964 RMK AO2 SLP040 T03110133 $=
KTVL 170453Z AUTO 16003KT 10SM CLR 14/07 A3009 RMK AO2 SLP132 T01440067=
KUKI 170456Z AUTO 15004KT 10SM CLR 23/11 A2979 RMK AO2 SLP082 T02280111=
KVBG 170458Z AUTO 36005KT 6SM BR OVC006 12/11 A2991 RMK AO2 SLP131 T01230114=
KVCV 170245Z 17014KT 10SM SKC A2982=
KVIS 170456Z AUTO 30005KT 10SM CLR 25/16 A2975 RMK AO2 SLP077 T02500156=
KVNY 170451Z AUTO 18006KT 10SM OVC013 16/13 A2988 RMK AO2 SLP113 T01610133=
KWJF 170456Z AUTO 24012KT 10SM CLR 22/12 A2983 RMK AO2 SLP083 T02170117=
KWVI 170453Z AUTO 22003KT 10SM OVC006 12/11 A2989 RMK AO2 SLP121 T01220106 $=
KWVI 170506Z AUTO 18004KT 10SM OVC005 12/11 A2989 RMK AO2 T01220106 $=